CheckWX is a tool to help pilots better visualize weather data.  It is not intended as a substitute for an official pre-flight weather briefing.

08:12:21 UTC

KJBR TAF
Jonesboro Municipal Airport
Jonesboro, Arkansas, USA
KJBR 290534Z 2906/3006 06005KT 3SM -SHRA BR OVC005 FM291200 05007KT P6SM VCSH BKN005 OVC015 FM300000 03008KT 4SM BR OVC007

Jan-29@
06:00 UTC

Jan-29 @ 06:00 UTC

Jan-29@
12:00 UTC

Jan-29 @ 12:00 UTC

KJBR 290534Z 2906/3006 06005KT 3SM -SHRA BR OVC005
Wind
  • 060° at 5 KTS
Conditions
Light Rain, Mist
Cloud Levels
  • Overcast at 500' AGL

Jan-29@
12:00 UTC

Jan-29 @ 12:00 UTC

Jan-30@
00:00 UTC

Jan-30 @ 00:00 UTC

FM291200 05007KT P6SM VCSH BKN005 OVC015

From

From Standard forecast or significant change

Wind
  • 050° at 7 KTS
Cloud Levels
  • Broken at 500' AGL
  • Overcast at 1,500' AGL

Jan-30@
00:00 UTC

Jan-30 @ 00:00 UTC

Jan-30@
06:00 UTC

Jan-30 @ 06:00 UTC

FM300000 03008KT 4SM BR OVC007

From

From Standard forecast or significant change

Wind
  • 030° at 8 KTS
Conditions
Mist
Cloud Levels
  • Overcast at 700' AGL